Time;durP1;ratioP1;P1;durP2;ratioP2;P2;SDS_P1;SDS_P2;PMS_P1;PMS_P2;Temp;Humidity;BMP_temperature;BMP_pressure;BME280_temperature;BME280_humidity;BME280_pressure;Samples;Min_cycle;Max_cycle;Signal;HPM_P1;HPM_P2
2023/10/11 00:01:32;;;;;;;11.60;6.37;;;;;;;16.66;76.09;100675.91;5075995;28;20229;-72
2023/10/11 00:04:03;;;;;;;9.47;6.13;;;;;;;16.69;75.43;100674.69;5075918;28;20257;-72
2023/10/11 00:06:33;;;;;;;11.40;5.87;;;;;;;16.67;75.66;100676.75;5075957;28;20194;-72
2023/10/11 00:09:02;;;;;;;13.20;6.27;;;;;;;16.64;75.53;100677.97;5075863;28;20202;-72
2023/10/11 00:11:33;;;;;;;13.23;6.17;;;;;;;16.63;75.30;100679.03;5075846;28;20213;-72
2023/10/11 00:14:01;;;;;;;9.50;5.40;;;;;;;16.64;75.18;100677.97;5075750;28;20312;-72
2023/10/11 00:16:31;;;;;;;10.60;5.83;;;;;;;16.63;75.22;100670.06;5075679;28;20300;-72
2023/10/11 00:19:00;;;;;;;8.83;5.77;;;;;;;16.60;75.46;100676.72;5075543;28;20226;-72
2023/10/11 00:21:40;;;;;;;12.17;6.37;;;;;;;16.58;75.40;100672.53;5075434;28;20213;-72
2023/10/11 00:24:09;;;;;;;9.73;5.80;;;;;;;16.57;75.04;100663.63;5075525;28;20236;-72
2023/10/11 00:26:40;;;;;;;9.47;6.20;;;;;;;16.58;75.96;100661.72;5075529;28;20212;-72
2023/10/11 00:29:11;;;;;;;9.57;5.53;;;;;;;16.54;75.73;100650.44;5075703;28;20192;-72
2023/10/11 00:31:39;;;;;;;11.27;5.57;;;;;;;16.52;75.61;100657.09;5075312;28;20608;-72
2023/10/11 00:34:10;;;;;;;11.67;5.50;;;;;;;16.50;74.65;100645.66;5075322;28;20229;-72
2023/10/11 00:36:42;;;;;;;8.07;5.40;;;;;;;16.47;75.02;100644.19;5075401;28;20232;-72
2023/10/11 00:39:16;;;;;;;13.13;5.93;;;;;;;16.49;73.97;100642.13;5075534;28;20300;-72
2023/10/11 00:41:49;;;;;;;9.13;5.80;;;;;;;16.50;74.51;100638.41;5075241;28;20190;-72
2023/10/11 00:44:20;;;;;;;8.77;5.43;;;;;;;16.50;74.29;100632.16;5074854;28;20316;-72
2023/10/11 00:46:59;;;;;;;11.23;5.40;;;;;;;16.50;74.10;100633.00;5075413;28;20201;-72
2023/10/11 00:49:36;;;;;;;10.73;5.27;;;;;;;16.52;73.00;100622.81;5075105;28;20190;-72
2023/10/11 00:52:06;;;;;;;12.07;5.97;;;;;;;16.57;72.36;100616.84;5074730;28;20720;-72
2023/10/11 00:54:37;;;;;;;8.20;5.03;;;;;;;16.60;71.87;100616.44;5074923;28;20338;-72
2023/10/11 00:57:07;;;;;;;8.73;5.27;;;;;;;16.60;72.50;100617.25;5074812;28;20194;-72
2023/10/11 00:59:38;;;;;;;7.97;5.47;;;;;;;16.59;72.61;100621.00;5074835;28;20274;-72
2023/10/11 01:02:08;;;;;;;10.53;5.90;;;;;;;16.60;72.03;100622.66;5074893;28;20204;-72
2023/10/11 01:04:38;;;;;;;10.90;5.30;;;;;;;16.64;72.06;100626.59;5074760;28;20275;-72
2023/10/11 01:07:08;;;;;;;13.63;5.30;;;;;;;16.64;71.86;100618.50;5074808;28;20194;-72
2023/10/11 01:09:37;;;;;;;11.30;6.23;;;;;;;16.70;70.59;100624.97;5074363;28;20698;-72
2023/10/11 01:12:07;;;;;;;10.67;5.23;;;;;;;16.70;71.25;100623.13;5074335;28;20568;-72
2023/10/11 01:14:56;;;;;;;10.87;5.47;;;;;;;16.70;70.58;100615.00;5074502;28;20240;-72
2023/10/11 01:17:26;;;;;;;10.50;5.40;;;;;;;16.69;70.71;100618.75;5074551;28;20190;-72
2023/10/11 01:19:55;;;;;;;8.20;5.13;;;;;;;16.69;70.70;100617.91;5074706;28;20319;-72
2023/10/11 01:22:25;;;;;;;9.00;5.20;;;;;;;16.66;71.41;100613.75;5074200;28;20210;-72
2023/10/11 01:24:58;;;;;;;8.47;4.90;;;;;;;16.65;71.40;100617.47;5074362;28;20225;-72
2023/10/11 01:27:30;;;;;;;9.70;5.67;;;;;;;16.62;70.64;100625.16;5074378;28;20189;-72
2023/10/11 01:29:58;;;;;;;9.93;5.50;;;;;;;16.58;71.48;100624.72;5074340;28;20221;-72
2023/10/11 01:32:27;;;;;;;13.10;5.57;;;;;;;16.54;71.38;100618.00;5074258;28;20209;-72
2023/10/11 01:34:55;;;;;;;8.77;5.37;;;;;;;16.54;71.38;100622.63;5074202;28;20228;-72
2023/10/11 01:37:26;;;;;;;9.67;5.13;;;;;;;16.50;72.18;100622.19;5074187;28;20209;-72
2023/10/11 01:39:54;;;;;;;8.43;5.10;;;;;;;16.47;71.73;100609.03;5073743;28;20595;-72
2023/10/11 01:42:23;;;;;;;9.70;5.67;;;;;;;16.46;72.19;100610.09;5074058;28;20231;-72
2023/10/11 01:44:51;;;;;;;9.40;5.10;;;;;;;16.44;72.15;100601.34;5073692;28;20707;-72
2023/10/11 01:47:20;;;;;;;10.03;5.67;;;;;;;16.41;72.03;100601.75;5073992;28;20292;-72
2023/10/11 01:49:52;;;;;;;9.03;5.20;;;;;;;16.40;72.32;100600.09;5073619;28;20667;-72
2023/10/11 01:52:21;;;;;;;10.07;5.00;;;;;;;16.42;71.19;100597.19;5073979;28;20205;-72
2023/10/11 01:54:51;;;;;;;11.50;5.83;;;;;;;16.38;72.43;100591.34;5073808;28;20225;-72
2023/10/11 01:57:19;;;;;;;11.27;5.67;;;;;;;16.37;72.27;100597.78;5073489;28;20568;-72
2023/10/11 01:59:48;;;;;;;12.53;6.00;;;;;;;16.36;72.42;100588.03;5073773;28;20260;-72
2023/10/11 02:02:16;;;;;;;10.17;5.93;;;;;;;16.35;71.29;100586.34;5074277;28;20209;-72
2023/10/11 02:04:47;;;;;;;8.93;5.80;;;;;;;16.39;71.59;100587.63;5073360;28;20627;-72
2023/10/11 02:07:15;;;;;;;11.10;5.80;;;;;;;16.40;70.86;100585.75;5073747;28;20251;-72
2023/10/11 02:09:44;;;;;;;9.83;5.70;;;;;;;16.41;70.90;100590.09;5072877;28;20208;-72
2023/10/11 02:12:17;;;;;;;8.47;5.27;;;;;;;16.41;70.92;100585.53;5073338;28;20241;-72
2023/10/11 02:14:46;;;;;;;9.03;4.70;;;;;;;16.48;70.70;100578.28;5073542;28;20317;-72
2023/10/11 02:17:18;;;;;;;7.00;5.20;;;;;;;16.49;70.12;100590.78;5073573;28;20241;-72
2023/10/11 02:19:46;;;;;;;8.60;4.90;;;;;;;16.48;69.94;100582.84;5073528;28;20237;-72
2023/10/11 02:22:18;;;;;;;9.30;5.10;;;;;;;16.48;70.35;100590.97;5073144;28;20308;-72
2023/10/11 02:24:47;;;;;;;10.53;4.73;;;;;;;16.50;70.18;100589.75;5073417;28;20312;-72
2023/10/11 02:27:18;;;;;;;7.37;5.20;;;;;;;16.55;69.45;100590.00;5073218;28;20629;-72
2023/10/11 02:29:48;;;;;;;9.17;4.93;;;;;;;16.55;69.48;100589.13;5073563;28;20186;-72
2023/10/11 02:32:16;;;;;;;10.47;5.10;;;;;;;16.53;69.26;100589.34;5073405;28;20216;-72
2023/10/11 02:34:49;;;;;;;9.50;5.17;;;;;;;16.52;69.93;100587.66;5073345;28;20308;-73
2023/10/11 02:37:21;;;;;;;9.13;4.63;;;;;;;16.57;69.33;100587.94;5073419;28;20190;-73
2023/10/11 02:39:51;;;;;;;7.07;4.70;;;;;;;16.58;68.97;100592.28;5072979;28;20577;-73
2023/10/11 02:42:21;;;;;;;6.77;4.50;;;;;;;16.57;69.46;100579.84;5073354;28;20214;-73
2023/10/11 02:44:50;;;;;;;7.90;4.93;;;;;;;16.55;69.57;100581.00;5073262;28;20233;-73
2023/10/11 02:47:22;;;;;;;8.63;4.93;;;;;;;16.55;69.46;100579.19;5073276;28;20210;-73
2023/10/11 02:49:53;;;;;;;8.83;4.60;;;;;;;16.55;69.64;100581.00;5073304;28;20225;-73
2023/10/11 02:52:29;;;;;;;8.17;5.07;;;;;;;16.57;68.68;100582.53;5073208;28;20300;-73
2023/10/11 02:54:59;;;;;;;6.23;4.57;;;;;;;16.61;67.99;100577.56;5072865;28;20263;-73
2023/10/11 02:57:30;;;;;;;9.03;4.70;;;;;;;16.66;67.93;100584.00;5073186;28;20259;-73
2023/10/11 02:59:58;;;;;;;8.30;5.10;;;;;;;16.70;67.22;100579.03;5073397;28;20269;-73
2023/10/11 03:02:29;;;;;;;9.83;4.57;;;;;;;16.68;67.71;100581.94;5072837;28;20216;-73
2023/10/11 03:05:01;;;;;;;6.43;4.60;;;;;;;16.66;67.76;100578.59;5072799;28;20396;-73
2023/10/11 03:07:33;;;;;;;8.07;4.60;;;;;;;16.66;67.98;100573.19;5073029;28;20217;-73
2023/10/11 03:10:03;;;;;;;7.73;4.80;;;;;;;16.67;67.34;100580.28;5073105;28;20229;-73
2023/10/11 03:12:38;;;;;;;9.53;4.83;;;;;;;16.69;67.41;100571.94;5073070;28;20259;-73
2023/10/11 03:15:08;;;;;;;8.80;4.90;;;;;;;16.73;67.11;100568.66;5072986;28;20229;-73
2023/10/11 03:17:41;;;;;;;8.80;4.93;;;;;;;16.74;67.59;100574.88;5073118;28;20194;-73
2023/10/11 03:20:30;;;;;;;8.27;5.27;;;;;;;16.73;67.10;100562.41;5072656;28;20573;-73
2023/10/11 03:22:59;;;;;;;8.37;4.97;;;;;;;16.69;67.25;100559.28;5076340;28;20303;-73
2023/10/11 03:25:30;;;;;;;7.10;4.77;;;;;;;16.79;67.23;100555.31;5076661;28;20312;-73
2023/10/11 03:28:02;;;;;;;10.07;4.80;;;;;;;16.76;66.97;100556.56;5076404;28;20240;-73
2023/10/11 03:30:35;;;;;;;11.70;4.87;;;;;;;16.77;66.71;100557.41;5076378;28;20225;-73
2023/10/11 03:33:06;;;;;;;8.80;4.87;;;;;;;16.82;66.44;100544.94;5076547;28;20186;-73
2023/10/11 03:35:38;;;;;;;8.50;5.10;;;;;;;16.82;66.89;100549.50;5077073;28;20225;-73
2023/10/11 03:38:17;;;;;;;10.10;5.20;;;;;;;16.82;66.29;100546.81;5076505;28;20190;-73
2023/10/11 03:41:14;;;;;;;8.83;4.97;;;;;;;16.86;66.13;100546.19;5076394;28;20283;-72
2023/10/11 03:43:45;;;;;;;9.80;5.20;;;;;;;16.84;67.13;100553.69;5076354;28;20243;-72
2023/10/11 03:46:15;;;;;;;10.27;4.83;;;;;;;16.83;66.56;100540.38;5076352;28;20288;-72
2023/10/11 03:48:51;;;;;;;8.73;4.53;;;;;;;16.84;67.05;100539.34;5076260;28;20221;-72
2023/10/11 03:51:20;;;;;;;8.90;4.80;;;;;;;16.83;67.33;100533.09;5076278;28;20631;-72
2023/10/11 03:53:49;;;;;;;8.03;4.73;;;;;;;16.84;66.73;100544.75;5076140;28;20251;-72
2023/10/11 03:56:20;;;;;;;7.90;5.03;;;;;;;16.84;67.25;100542.03;5076230;28;20193;-72
2023/10/11 03:58:51;;;;;;;8.60;4.40;;;;;;;16.81;67.67;100537.06;5076103;28;20232;-72
2023/10/11 04:01:27;;;;;;;10.40;4.90;;;;;;;16.80;67.42;100532.66;5075996;28;20262;-72
2023/10/11 04:03:56;;;;;;;9.13;5.17;;;;;;;16.83;67.70;100533.09;5075977;28;20221;-72
2023/10/11 04:06:25;;;;;;;7.63;5.20;;;;;;;16.76;68.27;100523.28;5075957;28;20210;-72
2023/10/11 04:09:00;;;;;;;7.23;4.90;;;;;;;16.73;68.02;100528.09;5075871;28;20237;-72
2023/10/11 04:11:37;;;;;;;9.70;4.83;;;;;;;16.71;68.59;100527.44;5075910;28;20182;-72
2023/10/11 04:14:17;;;;;;;11.30;5.37;;;;;;;16.70;68.79;100531.22;5075496;28;20236;-72
2023/10/11 04:16:46;;;;;;;10.13;5.07;;;;;;;16.74;68.55;100520.81;5075521;28;20190;-72
2023/10/11 04:19:15;;;;;;;9.90;4.90;;;;;;;16.80;68.29;100521.84;5075725;28;20209;-72
2023/10/11 04:21:55;;;;;;;8.80;4.83;;;;;;;16.77;68.41;100514.16;5075169;28;20603;-72
2023/10/11 04:24:24;;;;;;;7.20;4.67;;;;;;;16.80;67.95;100524.56;5075605;28;20687;-72
2023/10/11 04:26:58;;;;;;;10.73;4.93;;;;;;;16.86;68.18;100529.13;5075538;28;20240;-72
2023/10/11 04:29:31;;;;;;;8.57;5.30;;;;;;;16.83;67.84;100522.28;5075598;28;20197;-72
2023/10/11 04:32:14;;;;;;;9.70;5.00;;;;;;;16.84;67.90;100523.13;5074790;28;20186;-72
2023/10/11 04:34:48;;;;;;;7.17;4.80;;;;;;;16.82;68.20;100522.47;5075136;28;20730;-72
2023/10/11 04:37:27;;;;;;;12.53;5.27;;;;;;;16.84;68.00;100523.94;5075150;28;20644;-72
2023/10/11 04:40:22;;;;;;;9.60;5.60;;;;;;;16.83;68.24;100514.16;5076469;28;20243;-73
2023/10/11 04:43:04;;;;;;;12.10;5.20;;;;;;;16.84;68.88;100515.00;5073830;28;20232;-73
2023/10/11 04:45:44;;;;;;;6.47;5.03;;;;;;;16.82;68.30;100511.66;5075257;28;20312;-73
2023/10/11 04:48:33;;;;;;;8.63;5.20;;;;;;;16.82;68.75;100506.25;5074732;28;20284;-73
2023/10/11 04:51:21;;;;;;;7.23;5.07;;;;;;;16.86;68.23;100510.22;5074284;28;20196;-73
2023/10/11 04:53:56;;;;;;;10.53;5.00;;;;;;;16.85;68.37;100505.88;5074999;28;20213;-73
2023/10/11 04:59:25;;;;;;;15.70;4.97;;;;;;;16.91;68.16;100500.47;5074789;28;20205;-74
2023/10/11 05:02:08;;;;;;;8.43;4.73;;;;;;;16.92;68.13;100504.00;5074854;28;20214;-74
2023/10/11 05:04:44;;;;;;;11.07;5.33;;;;;;;17.00;67.79;100498.38;5074841;28;20257;-74
2023/10/11 05:07:14;;;;;;;8.73;5.10;;;;;;;17.05;67.52;100496.72;5074796;28;20201;-74
2023/10/11 05:09:52;;;;;;;11.23;5.07;;;;;;;17.01;67.66;100500.03;5074760;28;20209;-74
2023/10/11 05:12:22;;;;;;;7.63;4.60;;;;;;;16.99;67.82;100499.41;5074771;28;20285;-74
2023/10/11 05:15:03;;;;;;;9.07;5.20;;;;;;;17.03;67.45;100492.53;5074318;28;20252;-74
2023/10/11 05:17:39;;;;;;;7.83;5.10;;;;;;;17.04;67.66;100494.22;5074614;28;20203;-74
2023/10/11 05:23:02;;;;;;;10.53;4.87;;;;;;;17.06;67.29;100487.53;5072022;28;20239;-74
2023/10/11 05:28:28;;;;;;;10.03;4.90;;;;;;;17.11;66.76;100478.81;5058859;28;20304;-74
2023/10/11 05:31:19;;;;;;;10.63;5.13;;;;;;;17.14;66.73;100472.97;5074365;28;20196;-74
2023/10/11 05:36:48;;;;;;;10.50;5.47;;;;;;;17.17;66.66;100480.66;5073956;28;20535;-73
2023/10/11 05:53:14;;;;;;;9.23;4.87;;;;;;;17.18;65.93;100463.41;5073908;28;20562;-73
2023/10/11 05:55:42;;;;;;;8.43;5.20;;;;;;;17.18;66.36;100463.41;5073855;28;20229;-73
2023/10/11 05:58:13;;;;;;;10.43;5.30;;;;;;;17.13;66.37;100466.72;5073555;28;20284;-73
2023/10/11 06:00:41;;;;;;;10.33;5.13;;;;;;;17.14;66.19;100468.41;5073627;28;20200;-73
2023/10/11 06:03:11;;;;;;;13.10;5.30;;;;;;;17.21;65.72;100465.69;5073731;28;20656;-73
2023/10/11 06:05:41;;;;;;;11.27;5.20;;;;;;;17.17;66.36;100467.97;5073738;28;20316;-73
2023/10/11 06:08:15;;;;;;;10.33;4.97;;;;;;;17.24;65.71;100476.09;5073993;28;20206;-73
2023/10/11 06:10:44;;;;;;;7.97;5.07;;;;;;;17.21;65.20;100468.41;5073572;28;20206;-73
2023/10/11 06:13:14;;;;;;;12.97;5.00;;;;;;;17.19;65.86;100462.38;5073320;28;20300;-73
2023/10/11 06:15:58;;;;;;;10.67;5.10;;;;;;;17.17;65.28;100476.09;5073172;28;20782;-73
2023/10/11 06:18:39;;;;;;;7.03;4.23;;;;;;;17.13;66.12;100474.00;5073624;28;20196;-73
2023/10/11 06:21:24;;;;;;;9.23;5.03;;;;;;;17.13;66.42;100471.31;5073333;28;20213;-73
2023/10/11 06:23:53;;;;;;;9.33;5.17;;;;;;;17.10;66.17;100466.31;5073497;28;20229;-73
2023/10/11 06:29:18;;;;;;;12.20;5.57;;;;;;;17.06;66.45;100470.47;5037251;28;20702;-73
2023/10/11 06:31:45;;;;;;;10.30;5.27;;;;;;;17.08;65.63;100473.81;5073453;28;20208;-73
2023/10/11 06:34:22;;;;;;;8.37;4.50;;;;;;;17.10;66.03;100474.44;5073376;28;20231;-73
2023/10/11 06:36:53;;;;;;;11.13;4.80;;;;;;;17.11;66.35;100468.00;5073440;28;20263;-73
2023/10/11 06:40:07;;;;;;;10.37;5.03;;;;;;;17.09;66.29;100461.94;5073431;28;20190;-73
2023/10/11 06:42:23;;;;;;;9.00;4.93;;;;;;;17.10;65.55;100472.56;5072870;28;20255;-73
2023/10/11 06:44:57;;;;;;;10.97;5.43;;;;;;;17.14;65.37;100475.69;5073288;28;20257;-73
2023/10/11 06:47:27;;;;;;;9.70;5.00;;;;;;;17.14;65.75;100467.56;5073316;28;20189;-73
2023/10/11 06:49:57;;;;;;;6.97;4.50;;;;;;;17.14;65.60;100472.97;5073266;28;20212;-73
2023/10/11 06:52:30;;;;;;;9.00;4.77;;;;;;;17.16;66.23;100465.47;5072972;28;20616;-73
2023/10/11 06:55:13;;;;;;;8.77;4.67;;;;;;;17.13;65.88;100476.72;5073879;28;20255;-73
2023/10/11 06:57:45;;;;;;;7.73;4.80;;;;;;;17.14;66.41;100478.38;5077335;28;20194;-73
2023/10/11 07:00:23;;;;;;;8.00;4.43;;;;;;;17.15;65.77;100485.47;5077296;28;20189;-73
2023/10/11 07:02:53;;;;;;;9.30;4.87;;;;;;;17.14;66.73;100481.94;5077214;28;20216;-73
2023/10/11 07:05:25;;;;;;;7.73;4.47;;;;;;;17.13;66.61;100484.84;5077029;28;20221;-73
2023/10/11 07:07:58;;;;;;;8.83;4.80;;;;;;;17.15;66.42;100475.50;5077146;28;20197;-73
2023/10/11 07:10:31;;;;;;;9.57;4.73;;;;;;;17.18;65.54;100474.22;5076769;28;20678;-73
2023/10/11 07:13:07;;;;;;;12.73;5.27;;;;;;;17.19;66.20;100484.03;5077098;28;20596;-73
2023/10/11 07:15:41;;;;;;;10.70;4.87;;;;;;;17.17;65.47;100473.41;5076918;28;20229;-73
2023/10/11 07:18:11;;;;;;;13.03;5.47;;;;;;;17.14;66.79;100472.97;5076990;28;20279;-73
2023/10/11 07:21:05;;;;;;;8.60;4.97;;;;;;;17.12;65.82;100475.88;5076816;28;20301;-73
2023/10/11 07:23:46;;;;;;;11.00;5.43;;;;;;;17.11;66.20;100470.69;5076448;28;20290;-73
2023/10/11 07:26:48;;;;;;;12.30;4.87;;;;;;;17.12;66.03;100469.66;5076446;28;20713;-73
2023/10/11 07:29:13;;;;;;;10.97;7.50;;;;;;;17.10;66.82;100487.97;5076254;28;20205;-66
2023/10/11 07:31:49;;;;;;;9.53;4.77;;;;;;;17.14;66.40;100489.22;5076582;28;20215;-70
2023/10/11 07:34:20;;;;;;;9.70;5.40;;;;;;;17.11;67.73;100501.28;5076531;28;20224;-70
2023/10/11 07:36:50;;;;;;;10.67;4.90;;;;;;;17.10;67.39;100509.59;5076247;28;20232;-70
2023/10/11 07:39:25;;;;;;;9.00;4.97;;;;;;;17.08;68.06;100514.41;5076425;28;20213;-70
2023/10/11 07:42:03;;;;;;;11.33;4.67;;;;;;;17.06;68.80;100509.19;5076473;28;20224;-70
2023/10/11 07:44:36;;;;;;;9.90;5.17;;;;;;;17.11;68.06;100522.09;5076341;28;20225;-70
2023/10/11 07:47:07;;;;;;;12.20;5.20;;;;;;;17.13;68.22;100520.00;5076055;28;20648;-70
2023/10/11 07:49:39;;;;;;;11.03;5.10;;;;;;;17.13;68.36;100509.19;5076282;28;20190;-70
2023/10/11 07:52:14;;;;;;;9.10;5.50;;;;;;;17.12;68.38;100508.34;5076009;28;20221;-70
2023/10/11 07:54:43;;;;;;;9.53;5.10;;;;;;;17.13;68.92;100514.59;5076196;28;20226;-70
2023/10/11 07:57:13;;;;;;;15.60;6.07;;;;;;;17.17;68.45;100515.84;5075821;28;20731;-70
2023/10/11 07:59:42;;;;;;;12.03;4.90;;;;;;;17.31;66.89;100517.50;5076119;28;20212;-70
2023/10/11 08:02:26;;;;;;;11.07;4.80;;;;;;;17.43;65.54;100505.00;5075999;28;20205;-70
2023/10/11 08:04:57;;;;;;;9.97;4.70;;;;;;;17.54;65.24;100496.22;5075976;28;20229;-70
2023/10/11 08:07:27;;;;;;;9.93;4.40;;;;;;;17.61;64.91;100507.91;5074794;28;20557;-70
2023/10/11 08:09:57;;;;;;;9.63;4.73;;;;;;;17.67;65.30;100512.47;5075938;28;20300;-70
2023/10/11 08:12:27;;;;;;;8.33;4.80;;;;;;;17.79;64.24;100509.94;5075813;28;20205;-70
2023/10/11 08:14:56;;;;;;;13.33;4.80;;;;;;;17.82;64.30;100503.28;5075462;28;20607;-70
2023/10/11 08:17:29;;;;;;;12.70;4.60;;;;;;;17.82;65.00;100503.28;5075499;28;20663;-70
2023/10/11 08:19:59;;;;;;;7.77;4.33;;;;;;;17.82;64.75;100493.28;5075459;28;20707;-70
2023/10/11 08:22:28;;;;;;;9.70;4.60;;;;;;;17.87;64.53;100498.06;5075213;28;20247;-70
2023/10/11 08:25:00;;;;;;;6.33;3.93;;;;;;;17.93;64.32;100489.06;5075163;28;20743;-70
2023/10/11 08:27:29;;;;;;;10.93;4.77;;;;;;;18.01;63.20;100483.44;5075639;28;20197;-70
2023/10/11 08:30:08;;;;;;;13.07;5.17;;;;;;;18.04;64.71;100488.41;5075550;28;20208;-70
2023/10/11 08:32:42;;;;;;;12.93;4.73;;;;;;;18.16;63.72;100490.22;5075509;28;20200;-70
2023/10/11 08:35:16;;;;;;;8.33;4.33;;;;;;;18.22;63.84;100488.53;5075455;28;20255;-70
2023/10/11 08:37:45;;;;;;;7.97;4.33;;;;;;;18.34;62.86;100486.81;5075144;28;20675;-70
2023/10/11 08:40:22;;;;;;;10.50;4.70;;;;;;;18.32;64.04;100480.78;5075389;28;20288;-70
2023/10/11 08:42:53;;;;;;;10.40;4.60;;;;;;;18.38;63.33;100481.78;5075282;28;20213;-70
2023/10/11 08:45:29;;;;;;;9.13;4.50;;;;;;;18.43;63.56;100482.78;5075181;28;20229;-70
2023/10/11 08:47:58;;;;;;;7.93;4.60;;;;;;;18.52;63.95;100484.25;5074910;28;20658;-70
2023/10/11 08:50:34;;;;;;;8.83;4.70;;;;;;;18.62;63.05;100483.75;5075140;28;20238;-70
2023/10/11 08:53:08;;;;;;;9.90;4.43;;;;;;;18.63;62.20;100475.38;5075130;28;20192;-70
2023/10/11 08:55:40;;;;;;;8.87;4.33;;;;;;;18.70;62.22;100481.59;5075015;28;20287;-70
2023/10/11 08:58:12;;;;;;;7.60;4.60;;;;;;;18.72;62.33;100487.66;5073860;28;20190;-70
2023/10/11 09:00:47;;;;;;;12.90;5.23;;;;;;;18.76;62.24;100489.91;5074519;28;20236;-70
2023/10/11 09:03:18;;;;;;;6.03;3.83;;;;;;;18.72;62.13;100487.66;5073972;28;20244;-70
2023/10/11 09:05:47;;;;;;;7.13;3.83;;;;;;;18.77;61.55;100502.44;5074798;28;20225;-70
2023/10/11 09:08:26;;;;;;;9.00;4.60;;;;;;;18.87;61.50;100502.78;5074814;28;20562;-70
2023/10/11 09:11:11;;;;;;;13.93;4.40;;;;;;;19.00;60.21;100508.09;5074808;28;20190;-70
2023/10/11 09:13:40;;;;;;;9.93;4.43;;;;;;;19.04;60.08;100507.41;5074665;28;20189;-70
2023/10/11 09:16:12;;;;;;;6.83;4.07;;;;;;;19.15;59.12;100503.16;5074653;28;20205;-70
2023/10/11 09:18:46;;;;;;;11.57;4.07;;;;;;;19.14;58.95;100498.81;5074305;28;20189;-70
2023/10/11 09:21:17;;;;;;;7.47;4.33;;;;;;;19.13;59.02;100502.56;5074347;28;20217;-70
2023/10/11 09:23:51;;;;;;;9.77;4.17;;;;;;;19.15;58.57;100498.56;5074041;28;20217;-70
2023/10/11 09:26:32;;;;;;;7.47;4.20;;;;;;;19.22;58.45;100484.94;5074206;28;20565;-70
2023/10/11 09:29:16;;;;;;;10.37;4.00;;;;;;;19.26;57.86;100486.16;5074433;28;20285;-70
2023/10/11 09:31:58;;;;;;;11.00;4.70;;;;;;;19.30;58.13;100478.41;5074387;28;20277;-70
2023/10/11 09:34:30;;;;;;;10.53;4.83;;;;;;;19.32;58.62;100489.84;5073916;28;20237;-70
2023/10/11 09:37:00;;;;;;;9.23;4.10;;;;;;;19.39;58.23;100486.03;5074224;28;20196;-70
2023/10/11 09:39:29;;;;;;;10.27;4.73;;;;;;;19.38;60.56;100478.13;5073856;28;20576;-70
2023/10/11 09:42:03;;;;;;;10.00;4.43;;;;;;;19.43;58.90;100475.59;5074134;28;20237;-70
2023/10/11 09:44:37;;;;;;;9.87;4.40;;;;;;;19.47;58.44;100477.63;5073663;28;20719;-70
2023/10/11 09:47:08;;;;;;;8.93;4.33;;;;;;;19.51;57.92;100488.88;5073765;28;20197;-70
2023/10/11 09:49:41;;;;;;;7.63;4.53;;;;;;;19.50;58.04;100476.34;5074054;28;20326;-70
2023/10/11 09:52:11;;;;;;;10.80;4.40;;;;;;;19.48;59.37;100479.31;5073976;28;20190;-70
2023/10/11 09:54:41;;;;;;;8.87;4.37;;;;;;;19.53;58.80;100476.72;5073890;28;20248;-70
2023/10/11 09:57:23;;;;;;;9.97;4.90;;;;;;;19.52;58.86;100466.91;5073832;28;20237;-74
2023/10/11 10:00:08;;;;;;;8.37;4.37;;;;;;;19.54;57.65;100467.53;5073790;28;20731;-74
2023/10/11 10:02:39;;;;;;;9.73;4.43;;;;;;;19.54;58.65;100466.69;5073980;28;20190;-74
2023/10/11 10:05:08;;;;;;;6.90;4.37;;;;;;;19.54;58.73;100483.00;5074047;28;20237;-75
2023/10/11 10:07:44;;;;;;;14.00;5.10;;;;;;;19.53;59.00;100482.16;5073903;28;20228;-75
2023/10/11 10:10:15;;;;;;;13.27;4.57;;;;;;;19.56;59.30;100470.84;5074626;28;20185;-75
2023/10/11 10:12:58;;;;;;;10.43;4.93;;;;;;;19.59;58.68;100474.97;5073745;28;20284;-75
2023/10/11 10:15:32;;;;;;;9.97;4.23;;;;;;;19.69;58.68;100476.13;5073640;28;20222;-75
2023/10/11 10:18:21;;;;;;;9.53;4.20;;;;;;;19.78;58.67;100467.69;5073732;28;20189;-75
2023/10/11 10:21:02;;;;;;;9.30;4.97;;;;;;;19.86;59.11;100464.69;5073414;28;20194;-75
2023/10/11 10:23:32;;;;;;;8.70;4.60;;;;;;;19.94;58.58;100467.06;5073540;28;20586;-75
2023/10/11 10:26:32;;;;;;;8.73;5.07;;;;;;;20.04;58.93;100467.34;5072669;28;20195;-75
2023/10/11 10:29:06;;;;;;;7.97;4.40;;;;;;;20.08;58.32;100474.00;5073165;28;20212;-75
2023/10/11 10:31:35;;;;;;;9.30;4.30;;;;;;;20.14;58.57;100460.31;5072700;28;20651;-75
2023/10/11 10:34:29;;;;;;;9.43;4.60;;;;;;;20.24;57.97;100465.19;5072963;28;20639;-76
2023/10/11 10:37:02;;;;;;;10.43;4.37;;;;;;;20.27;57.08;100459.38;5073328;28;20194;-75
2023/10/11 10:39:48;;;;;;;9.13;4.13;;;;;;;20.39;56.84;100465.66;5073033;28;20542;-75
2023/10/11 10:42:18;;;;;;;9.07;4.73;;;;;;;20.43;57.53;100468.75;5073080;28;20734;-75
2023/10/11 10:44:53;;;;;;;7.03;4.70;;;;;;;20.48;58.29;100461.53;5073159;28;20240;-74
2023/10/11 10:47:32;;;;;;;8.47;4.87;;;;;;;20.56;58.35;100458.50;5073306;28;20243;-76
2023/10/11 10:50:09;;;;;;;9.17;4.50;;;;;;;20.59;57.56;100454.47;5073492;28;20236;-76
2023/10/11 10:52:39;;;;;;;7.63;4.37;;;;;;;20.66;56.46;100457.94;5072948;28;20310;-76
2023/10/11 10:55:09;;;;;;;10.03;6.20;;;;;;;20.72;57.99;100457.81;5072997;28;20256;-74
2023/10/11 10:57:37;;;;;;;16.23;11.47;;;;;;;20.79;57.72;100465.09;5073166;28;20354;-72
2023/10/11 11:00:20;;;;;;;8.73;4.73;;;;;;;20.81;57.38;100468.38;5073195;28;20258;-73
2023/10/11 11:02:50;;;;;;;12.00;5.07;;;;;;;20.95;55.80;100469.84;5072549;28;20201;-74
2023/10/11 11:05:29;;;;;;;11.33;5.20;;;;;;;21.03;56.77;100466.75;5072295;28;20225;-74
2023/10/11 11:08:15;;;;;;;10.03;5.07;;;;;;;21.08;56.10;100465.00;5072704;28;20663;-74
2023/10/11 11:10:54;;;;;;;9.37;4.50;;;;;;;21.16;56.24;100461.94;5073183;28;20193;-73
2023/10/11 11:13:25;;;;;;;9.53;4.67;;;;;;;21.28;55.57;100463.84;5072670;28;20229;-74
2023/10/11 11:15:55;;;;;;;13.20;4.90;;;;;;;21.29;54.17;100455.44;5072702;28;20218;-74
2023/10/11 11:18:32;;;;;;;12.17;4.47;;;;;;;21.27;54.72;100452.13;5072965;28;20244;-75
2023/10/11 11:21:17;;;;;;;10.47;5.27;;;;;;;21.25;54.74;100451.53;5072410;28;20647;-75
2023/10/11 11:23:49;;;;;;;9.80;4.40;;;;;;;21.21;55.21;100455.78;5072822;28;20200;-75
2023/10/11 11:26:17;;;;;;;15.47;4.63;;;;;;;21.17;54.67;100460.03;5072882;28;20213;-75
2023/10/11 11:28:51;;;;;;;6.20;4.43;;;;;;;21.18;54.91;100465.28;5072897;28;20621;-76
2023/10/11 11:31:30;;;;;;;10.93;4.80;;;;;;;21.19;54.99;100466.09;5072897;28;20293;-75
2023/10/11 11:34:15;;;;;;;10.33;4.47;;;;;;;21.20;55.84;100465.03;5072864;28;20328;-75
2023/10/11 11:36:56;;;;;;;9.47;4.43;;;;;;;21.28;55.39;100448.34;5071913;28;20205;-75
2023/10/11 11:39:51;;;;;;;9.13;4.77;;;;;;;21.31;55.55;100452.47;5072466;28;20632;-75
2023/10/11 11:42:19;;;;;;;10.97;4.73;;;;;;;21.40;55.75;100462.78;5073511;28;20646;-75
2023/10/11 11:44:49;;;;;;;15.50;5.20;;;;;;;21.56;55.35;100458.50;5076347;28;20229;-75
2023/10/11 11:47:21;;;;;;;12.33;4.77;;;;;;;21.64;55.30;100456.22;5076395;28;20210;-75
2023/10/11 11:49:58;;;;;;;17.13;5.33;;;;;;;21.78;54.52;100464.16;5076082;28;20686;-75
2023/10/11 11:52:28;;;;;;;10.33;4.90;;;;;;;21.79;55.87;100477.53;5076277;28;20190;-75
2023/10/11 11:54:57;;;;;;;14.93;4.83;;;;;;;21.85;54.74;100475.75;5076168;28;20260;-75
2023/10/11 11:57:29;;;;;;;14.57;5.13;;;;;;;21.90;54.97;100471.28;5076194;28;20212;-76
2023/10/11 12:00:01;;;;;;;14.17;4.93;;;;;;;21.95;54.52;100476.81;5076167;28;20193;-75
2023/10/11 12:02:30;;;;;;;12.67;5.60;;;;;;;22.00;54.08;100465.19;5076098;28;20212;-75
2023/10/11 12:04:58;;;;;;;15.63;5.20;;;;;;;22.08;53.54;100464.81;5075782;28;20715;-75
2023/10/11 12:07:27;;;;;;;12.73;5.23;;;;;;;22.14;54.33;100458.41;5075956;28;20237;-75
2023/10/11 12:09:55;;;;;;;18.67;5.50;;;;;;;22.18;53.43;100454.94;5075640;28;20664;-75
2023/10/11 12:12:32;;;;;;;12.93;4.97;;;;;;;22.20;53.87;100462.88;5075895;28;20236;-75
2023/10/11 12:15:01;;;;;;;12.67;4.50;;;;;;;22.29;54.51;100464.16;5075749;28;20221;-75
2023/10/11 12:17:31;;;;;;;11.47;4.90;;;;;;;22.29;54.39;100469.63;5075786;28;20296;-75
2023/10/11 12:20:00;;;;;;;13.13;5.37;;;;;;;22.34;54.74;100464.25;5075638;28;20209;-75